sensor_id;sensor_type;location;lat;lon;timestamp;pressure;altitude;pressure_sealevel;temperature;humidity
84944;BME280;75231;53.650;9.788;2024-03-23T00:54:20;100933.88;;;8.04;83.90
84944;BME280;75231;53.650;9.788;2024-03-23T00:56:45;100938.25;;;8.02;83.71
84944;BME280;75231;53.650;9.788;2024-03-23T00:59:11;100929.94;;;7.97;83.46
84944;BME280;75231;53.650;9.788;2024-03-23T01:01:36;100922.28;;;7.95;83.48
84944;BME280;75231;53.650;9.788;2024-03-23T01:04:02;100922.59;;;7.89;83.97
84944;BME280;75231;53.650;9.788;2024-03-23T01:06:28;100915.03;;;7.86;83.96
84944;BME280;75231;53.650;9.788;2024-03-23T01:08:53;100920.00;;;7.89;84.55
84944;BME280;75231;53.650;9.788;2024-03-23T01:11:18;100913.94;;;7.90;84.13
84944;BME280;75231;53.650;9.788;2024-03-23T01:13:43;100910.00;;;7.83;84.09
84944;BME280;75231;53.650;9.788;2024-03-23T01:16:09;100908.50;;;7.79;84.58
84944;BME280;75231;53.650;9.788;2024-03-23T01:18:34;100900.16;;;7.74;84.97
84944;BME280;75231;53.650;9.788;2024-03-23T01:20:59;100890.22;;;7.66;84.96
84944;BME280;75231;53.650;9.788;2024-03-23T01:23:24;100897.94;;;7.66;84.89
84944;BME280;75231;53.650;9.788;2024-03-23T01:25:53;100893.78;;;7.64;85.19
84944;BME280;75231;53.650;9.788;2024-03-23T01:28:20;100893.47;;;7.70;85.26
84944;BME280;75231;53.650;9.788;2024-03-23T01:30:45;100894.34;;;7.70;85.32
84944;BME280;75231;53.650;9.788;2024-03-23T01:33:10;100894.25;;;7.72;84.98
84944;BME280;75231;53.650;9.788;2024-03-23T01:35:36;100877.56;;;7.62;85.10
84944;BME280;75231;53.650;9.788;2024-03-23T01:38:01;100893.94;;;7.61;85.07
84944;BME280;75231;53.650;9.788;2024-03-23T01:40:26;100882.78;;;7.60;85.42
84944;BME280;75231;53.650;9.788;2024-03-23T01:43:00;100887.94;;;7.60;85.02
84944;BME280;75231;53.650;9.788;2024-03-23T01:45:27;100875.44;;;7.52;85.05
84944;BME280;75231;53.650;9.788;2024-03-23T01:47:52;100864.31;;;7.52;85.40
84944;BME280;75231;53.650;9.788;2024-03-23T01:50:18;100861.00;;;7.50;85.48
84944;BME280;75231;53.650;9.788;2024-03-23T01:52:56;100856.97;;;7.44;85.20
84944;BME280;75231;53.650;9.788;2024-03-23T01:55:22;100865.88;;;7.37;86.13
84944;BME280;75231;53.650;9.788;2024-03-23T01:57:48;100846.13;;;7.38;85.57
84944;BME280;75231;53.650;9.788;2024-03-23T02:00:13;100853.72;;;7.41;85.94
84944;BME280;75231;53.650;9.788;2024-03-23T02:02:45;100845.91;;;7.42;85.86
84944;BME280;75231;53.650;9.788;2024-03-23T02:05:11;100842.13;;;7.32;86.08
84944;BME280;75231;53.650;9.788;2024-03-23T02:07:38;100838.56;;;7.35;86.31
84944;BME280;75231;53.650;9.788;2024-03-23T02:10:05;100838.50;;;7.36;85.69
84944;BME280;75231;53.650;9.788;2024-03-23T02:12:31;100839.09;;;7.41;85.72
84944;BME280;75231;53.650;9.788;2024-03-23T02:14:56;100828.19;;;7.36;85.83
84944;BME280;75231;53.650;9.788;2024-03-23T02:17:21;100839.47;;;7.34;86.09
84944;BME280;75231;53.650;9.788;2024-03-23T02:19:46;100827.59;;;7.31;85.94
84944;BME280;75231;53.650;9.788;2024-03-23T02:22:12;100827.34;;;7.36;85.97
84944;BME280;75231;53.650;9.788;2024-03-23T02:24:37;100807.94;;;7.30;86.05
84944;BME280;75231;53.650;9.788;2024-03-23T02:27:03;100811.38;;;7.29;85.88
84944;BME280;75231;53.650;9.788;2024-03-23T02:29:28;100813.38;;;7.24;86.43
84944;BME280;75231;53.650;9.788;2024-03-23T02:31:53;100806.56;;;7.23;86.22
84944;BME280;75231;53.650;9.788;2024-03-23T02:34:18;100816.91;;;7.21;86.45
84944;BME280;75231;53.650;9.788;2024-03-23T02:36:44;100810.25;;;7.17;86.20
84944;BME280;75231;53.650;9.788;2024-03-23T02:39:09;100810.16;;;7.19;86.11
84944;BME280;75231;53.650;9.788;2024-03-23T02:41:34;100820.34;;;7.22;86.33
84944;BME280;75231;53.650;9.788;2024-03-23T02:43:59;100806.22;;;7.12;85.83
84944;BME280;75231;53.650;9.788;2024-03-23T02:46:24;100811.25;;;7.15;86.40
84944;BME280;75231;53.650;9.788;2024-03-23T02:48:50;100808.94;;;7.09;86.40
84944;BME280;75231;53.650;9.788;2024-03-23T02:51:15;100807.13;;;7.11;86.63
84944;BME280;75231;53.650;9.788;2024-03-23T02:53:41;100802.16;;;7.08;86.61
84944;BME280;75231;53.650;9.788;2024-03-23T02:56:06;100803.81;;;7.09;86.69
84944;BME280;75231;53.650;9.788;2024-03-23T02:58:31;100786.00;;;7.04;86.70
84944;BME280;75231;53.650;9.788;2024-03-23T03:00:57;100798.50;;;7.12;86.35
84944;BME280;75231;53.650;9.788;2024-03-23T03:03:22;100777.34;;;7.07;86.58
84944;BME280;75231;53.650;9.788;2024-03-23T03:05:47;100780.56;;;7.10;86.60
84944;BME280;75231;53.650;9.788;2024-03-23T03:08:12;100777.19;;;7.10;86.54
84944;BME280;75231;53.650;9.788;2024-03-23T03:10:37;100780.41;;;7.13;86.34
84944;BME280;75231;53.650;9.788;2024-03-23T03:13:03;100768.78;;;7.06;86.29
84944;BME280;75231;53.650;9.788;2024-03-23T03:15:28;100767.94;;;7.06;86.69
84944;BME280;75231;53.650;9.788;2024-03-23T03:17:53;100764.59;;;7.04;86.30
84944;BME280;75231;53.650;9.788;2024-03-23T03:20:19;100768.25;;;6.99;86.79
84944;BME280;75231;53.650;9.788;2024-03-23T03:22:44;100767.53;;;6.96;86.72
84944;BME280;75231;53.650;9.788;2024-03-23T03:25:09;100765.81;;;6.96;86.77
84944;BME280;75231;53.650;9.788;2024-03-23T03:27:35;100748.13;;;6.90;86.71
84944;BME280;75231;53.650;9.788;2024-03-23T03:30:00;100759.06;;;6.94;87.23
84944;BME280;75231;53.650;9.788;2024-03-23T03:32:30;100745.66;;;6.87;86.99
84944;BME280;75231;53.650;9.788;2024-03-23T03:34:55;100747.34;;;6.88;86.96
84944;BME280;75231;53.650;9.788;2024-03-23T03:37:20;100750.69;;;6.90;87.00
84944;BME280;75231;53.650;9.788;2024-03-23T03:39:46;100739.78;;;6.85;86.80
84944;BME280;75231;53.650;9.788;2024-03-23T03:42:11;100743.09;;;6.87;86.74
84944;BME280;75231;53.650;9.788;2024-03-23T03:44:36;100742.50;;;6.82;87.02
84944;BME280;75231;53.650;9.788;2024-03-23T03:47:02;100731.44;;;6.80;87.24
84944;BME280;75231;53.650;9.788;2024-03-23T03:49:27;100729.88;;;6.78;87.06
84944;BME280;75231;53.650;9.788;2024-03-23T03:51:52;100735.91;;;6.77;87.24
84944;BME280;75231;53.650;9.788;2024-03-23T03:54:18;100717.22;;;6.73;87.35
84944;BME280;75231;53.650;9.788;2024-03-23T03:56:43;100715.19;;;6.80;87.45
84944;BME280;75231;53.650;9.788;2024-03-23T03:59:08;100714.34;;;6.79;87.40
84944;BME280;75231;53.650;9.788;2024-03-23T04:01:34;100711.03;;;6.77;87.40
84944;BME280;75231;53.650;9.788;2024-03-23T04:04:00;100712.53;;;6.81;87.06
84944;BME280;75231;53.650;9.788;2024-03-23T04:06:25;100713.75;;;6.74;87.38
84944;BME280;75231;53.650;9.788;2024-03-23T04:08:50;100710.41;;;6.72;87.32
84944;BME280;75231;53.650;9.788;2024-03-23T04:11:16;100704.81;;;6.64;87.03
84944;BME280;75231;53.650;9.788;2024-03-23T04:13:41;100710.09;;;6.61;87.37
84944;BME280;75231;53.650;9.788;2024-03-23T04:16:07;100716.00;;;6.63;87.41
84944;BME280;75231;53.650;9.788;2024-03-23T04:18:32;100718.56;;;6.63;87.48
84944;BME280;75231;53.650;9.788;2024-03-23T04:20:57;100705.13;;;6.58;87.42
84944;BME280;75231;53.650;9.788;2024-03-23T04:26:25;100696.78;;;6.53;87.77
84944;BME280;75231;53.650;9.788;2024-03-23T04:28:50;100683.94;;;6.53;87.44
84944;BME280;75231;53.650;9.788;2024-03-23T04:31:15;100676.31;;;6.51;87.45
84944;BME280;75231;53.650;9.788;2024-03-23T04:33:40;100681.22;;;6.56;87.76
84944;BME280;75231;53.650;9.788;2024-03-23T04:36:06;100691.94;;;6.47;87.97
84944;BME280;75231;53.650;9.788;2024-03-23T04:38:32;100701.75;;;6.56;87.48
84944;BME280;75231;53.650;9.788;2024-03-23T04:40:58;100711.00;;;6.60;87.42
84944;BME280;75231;53.650;9.788;2024-03-23T04:43:23;100704.25;;;6.57;87.62
84944;BME280;75231;53.650;9.788;2024-03-23T04:45:49;100712.59;;;6.62;87.11
84944;BME280;75231;53.650;9.788;2024-03-23T04:48:14;100713.44;;;6.63;87.19
84944;BME280;75231;53.650;9.788;2024-03-23T04:50:39;100702.38;;;6.61;87.25
84944;BME280;75231;53.650;9.788;2024-03-23T04:53:06;100706.47;;;6.65;87.43
84944;BME280;75231;53.650;9.788;2024-03-23T04:55:31;100696.19;;;6.65;86.81
84944;BME280;75231;53.650;9.788;2024-03-23T04:57:56;100704.53;;;6.70;87.23
84944;BME280;75231;53.650;9.788;2024-03-23T05:00:22;100683.19;;;6.68;86.47
84944;BME280;75231;53.650;9.788;2024-03-23T05:02:48;100683.03;;;6.71;86.47
84944;BME280;75231;53.650;9.788;2024-03-23T05:05:13;100691.00;;;6.66;86.89
84944;BME280;75231;53.650;9.788;2024-03-23T05:07:39;100685.06;;;6.64;86.44
84944;BME280;75231;53.650;9.788;2024-03-23T05:10:04;100682.44;;;6.66;86.42
84944;BME280;75231;53.650;9.788;2024-03-23T05:12:30;100673.84;;;6.67;86.32
84944;BME280;75231;53.650;9.788;2024-03-23T05:14:55;100683.78;;;6.73;86.30
84944;BME280;75231;53.650;9.788;2024-03-23T05:17:20;100677.91;;;6.71;85.92
84944;BME280;75231;53.650;9.788;2024-03-23T05:19:45;100666.25;;;6.64;86.03
84944;BME280;75231;53.650;9.788;2024-03-23T05:22:14;100668.53;;;6.70;86.17
84944;BME280;75231;53.650;9.788;2024-03-23T05:24:39;100675.50;;;6.68;85.93
84944;BME280;75231;53.650;9.788;2024-03-23T05:27:04;100671.72;;;6.75;85.68
84944;BME280;75231;53.650;9.788;2024-03-23T05:29:31;100673.88;;;6.65;86.08
84944;BME280;75231;53.650;9.788;2024-03-23T05:31:56;100670.19;;;6.71;86.11
84944;BME280;75231;53.650;9.788;2024-03-23T05:34:22;100666.88;;;6.69;85.70
84944;BME280;75231;53.650;9.788;2024-03-23T05:36:47;100669.19;;;6.73;85.90
84944;BME280;75231;53.650;9.788;2024-03-23T05:39:14;100667.69;;;6.69;85.68
84944;BME280;75231;53.650;9.788;2024-03-23T05:41:41;100660.97;;;6.67;86.28
84944;BME280;75231;53.650;9.788;2024-03-23T05:44:07;100664.75;;;6.77;85.70
84944;BME280;75231;53.650;9.788;2024-03-23T05:46:32;100664.50;;;6.82;85.61
84944;BME280;75231;53.650;9.788;2024-03-23T05:48:58;100665.38;;;6.82;85.44
84944;BME280;75231;53.650;9.788;2024-03-23T05:51:26;100657.66;;;6.82;85.23
84944;BME280;75231;53.650;9.788;2024-03-23T05:53:51;100652.66;;;6.79;85.45
84944;BME280;75231;53.650;9.788;2024-03-23T05:56:19;100655.13;;;6.81;85.48
84944;BME280;75231;53.650;9.788;2024-03-23T05:58:44;100655.13;;;6.81;85.16
84944;BME280;75231;53.650;9.788;2024-03-23T06:01:10;100655.97;;;6.81;85.46
84944;BME280;75231;53.650;9.788;2024-03-23T06:03:35;100652.81;;;6.76;85.44
84944;BME280;75231;53.650;9.788;2024-03-23T06:06:00;100656.44;;;6.72;84.97
84944;BME280;75231;53.650;9.788;2024-03-23T06:08:25;100653.19;;;6.68;85.49
84944;BME280;75231;53.650;9.788;2024-03-23T06:10:51;100642.44;;;6.60;85.53
84944;BME280;75231;53.650;9.788;2024-03-23T06:13:16;100651.59;;;6.66;86.06
84944;BME280;75231;53.650;9.788;2024-03-23T06:15:43;100639.50;;;6.68;85.60
84944;BME280;75231;53.650;9.788;2024-03-23T06:18:08;100653.84;;;6.72;85.72
84944;BME280;75231;53.650;9.788;2024-03-23T06:20:34;100654.22;;;6.82;85.52
84944;BME280;75231;53.650;9.788;2024-03-23T06:23:00;100648.03;;;6.86;85.13
84944;BME280;75231;53.650;9.788;2024-03-23T06:25:25;100643.72;;;6.86;84.90
84944;BME280;75231;53.650;9.788;2024-03-23T06:27:50;100648.94;;;6.85;85.24
84944;BME280;75231;53.650;9.788;2024-03-23T06:30:16;100644.19;;;6.77;85.08
84944;BME280;75231;53.650;9.788;2024-03-23T06:32:41;100649.03;;;6.83;85.43
84944;BME280;75231;53.650;9.788;2024-03-23T06:35:07;100649.78;;;6.85;84.98
84944;BME280;75231;53.650;9.788;2024-03-23T06:37:41;100642.16;;;6.84;85.18
84944;BME280;75231;53.650;9.788;2024-03-23T06:40:08;100640.94;;;6.91;85.48
84944;BME280;75231;53.650;9.788;2024-03-23T06:42:35;100641.16;;;6.86;85.03
84944;BME280;75231;53.650;9.788;2024-03-23T06:45:01;100638.75;;;6.83;84.96
84944;BME280;75231;53.650;9.788;2024-03-23T06:47:27;100645.56;;;6.84;85.04
84944;BME280;75231;53.650;9.788;2024-03-23T06:49:52;100631.16;;;6.80;85.27
84944;BME280;75231;53.650;9.788;2024-03-23T06:52:17;100628.59;;;6.80;85.45
84944;BME280;75231;53.650;9.788;2024-03-23T06:54:43;100632.38;;;6.73;85.38
84944;BME280;75231;53.650;9.788;2024-03-23T06:57:10;100637.22;;;6.79;85.63
84944;BME280;75231;53.650;9.788;2024-03-23T06:59:37;100641.16;;;6.86;85.09
84944;BME280;75231;53.650;9.788;2024-03-23T07:02:02;100640.94;;;6.91;85.41
84944;BME280;75231;53.650;9.788;2024-03-23T07:04:43;100636.75;;;6.88;85.25
84944;BME280;75231;53.650;9.788;2024-03-23T07:07:08;100627.31;;;6.89;85.00
84944;BME280;75231;53.650;9.788;2024-03-23T07:09:33;100641.44;;;6.97;84.42
84944;BME280;75231;53.650;9.788;2024-03-23T07:11:59;100632.84;;;6.98;84.78
84944;BME280;75231;53.650;9.788;2024-03-23T07:14:24;100643.84;;;7.18;84.54
84944;BME280;75231;53.650;9.788;2024-03-23T07:16:50;100638.03;;;7.14;84.10
84944;BME280;75231;53.650;9.788;2024-03-23T07:19:16;100645.38;;;7.22;83.58
84944;BME280;75231;53.650;9.788;2024-03-23T07:21:42;100637.97;;;7.16;83.90
84944;BME280;75231;53.650;9.788;2024-03-23T07:24:08;100627.19;;;7.25;83.72
84944;BME280;75231;53.650;9.788;2024-03-23T07:26:34;100633.59;;;7.34;83.99
84944;BME280;75231;53.650;9.788;2024-03-23T07:28:59;100638.09;;;7.46;83.38
84944;BME280;75231;53.650;9.788;2024-03-23T07:31:24;100628.19;;;7.55;83.01
84944;BME280;75231;53.650;9.788;2024-03-23T07:33:50;100636.16;;;7.67;81.91
84944;BME280;75231;53.650;9.788;2024-03-23T07:36:15;100623.88;;;7.72;82.89
84944;BME280;75231;53.650;9.788;2024-03-23T07:38:41;100625.63;;;7.87;81.99
84944;BME280;75231;53.650;9.788;2024-03-23T07:41:11;100628.75;;;7.92;81.57
84944;BME280;75231;53.650;9.788;2024-03-23T07:43:40;100625.03;;;7.98;81.03
84944;BME280;75231;53.650;9.788;2024-03-23T07:46:08;100620.72;;;7.98;80.59
84944;BME280;75231;53.650;9.788;2024-03-23T07:48:34;100627.50;;;8.15;80.64
84944;BME280;75231;53.650;9.788;2024-03-23T07:51:07;100625.25;;;8.25;80.01
84944;BME280;75231;53.650;9.788;2024-03-23T07:53:37;100625.00;;;8.29;79.71
84944;BME280;75231;53.650;9.788;2024-03-23T07:56:07;100612.84;;;8.31;80.33
84944;BME280;75231;53.650;9.788;2024-03-23T07:58:33;100623.44;;;8.43;79.69
84944;BME280;75231;53.650;9.788;2024-03-23T08:01:08;100616.53;;;8.43;78.88
84944;BME280;75231;53.650;9.788;2024-03-23T08:03:34;100612.13;;;8.45;79.41
84944;BME280;75231;53.650;9.788;2024-03-23T08:06:10;100613.16;;;8.57;79.39
84944;BME280;75231;53.650;9.788;2024-03-23T08:08:36;100596.50;;;8.62;78.87
84944;BME280;75231;53.650;9.788;2024-03-23T08:11:08;100607.13;;;8.72;78.40
84944;BME280;75231;53.650;9.788;2024-03-23T08:13:34;100588.59;;;8.65;78.38
84944;BME280;75231;53.650;9.788;2024-03-23T08:16:01;100604.66;;;8.85;77.56
84944;BME280;75231;53.650;9.788;2024-03-23T08:18:27;100595.56;;;8.93;77.30
84944;BME280;75231;53.650;9.788;2024-03-23T08:20:59;100602.50;;;9.07;76.51
84944;BME280;75231;53.650;9.788;2024-03-23T08:23:30;100592.16;;;9.21;76.28
84944;BME280;75231;53.650;9.788;2024-03-23T08:26:07;100601.84;;;9.32;76.10
84944;BME280;75231;53.650;9.788;2024-03-23T08:28:32;100585.13;;;9.38;75.98
84944;BME280;75231;53.650;9.788;2024-03-23T08:31:07;100585.94;;;9.52;75.01
84944;BME280;75231;53.650;9.788;2024-03-23T08:33:32;100586.50;;;9.72;73.94
84944;BME280;75231;53.650;9.788;2024-03-23T08:36:00;100573.63;;;9.85;72.95
84944;BME280;75231;53.650;9.788;2024-03-23T08:38:26;100553.97;;;9.82;73.09
84944;BME280;75231;53.650;9.788;2024-03-23T08:40:58;100570.50;;;9.79;73.20
84944;BME280;75231;53.650;9.788;2024-03-23T08:43:27;100537.72;;;9.53;71.69
84944;BME280;75231;53.650;9.788;2024-03-23T08:45:53;100584.16;;;9.81;70.19
84944;BME280;75231;53.650;9.788;2024-03-23T08:48:21;100559.97;;;9.82;70.06
84944;BME280;75231;53.650;9.788;2024-03-23T08:50:47;100550.97;;;10.15;69.15
84944;BME280;75231;53.650;9.788;2024-03-23T08:53:13;100570.00;;;10.28;70.36
84944;BME280;75231;53.650;9.788;2024-03-23T08:55:38;100561.91;;;10.33;68.36
84944;BME280;75231;53.650;9.788;2024-03-23T08:58:06;100556.59;;;10.22;68.85
84944;BME280;75231;53.650;9.788;2024-03-23T09:00:33;100560.16;;;10.33;69.50
84944;BME280;75231;53.650;9.788;2024-03-23T09:03:02;100541.13;;;10.34;68.72
84944;BME280;75231;53.650;9.788;2024-03-23T09:05:28;100569.72;;;10.19;67.39
84944;BME280;75231;53.650;9.788;2024-03-23T09:07:53;100563.69;;;10.18;68.89
84944;BME280;75231;53.650;9.788;2024-03-23T09:10:19;100572.97;;;10.08;68.31
84944;BME280;75231;53.650;9.788;2024-03-23T09:12:44;100566.66;;;9.99;68.88
84944;BME280;75231;53.650;9.788;2024-03-23T09:15:09;100570.00;;;10.28;68.35
84944;BME280;75231;53.650;9.788;2024-03-23T09:17:35;100561.66;;;10.63;66.99
84944;BME280;75231;53.650;9.788;2024-03-23T09:20:00;100558.97;;;10.77;65.66
84944;BME280;75231;53.650;9.788;2024-03-23T09:22:25;100554.31;;;10.95;64.55
84944;BME280;75231;53.650;9.788;2024-03-23T09:24:51;100561.25;;;10.95;63.29
84944;BME280;75231;53.650;9.788;2024-03-23T09:27:16;100562.28;;;10.79;64.97
84944;BME280;75231;53.650;9.788;2024-03-23T09:29:42;100561.03;;;10.59;64.95
84944;BME280;75231;53.650;9.788;2024-03-23T09:32:07;100556.78;;;10.46;65.40
84944;BME280;75231;53.650;9.788;2024-03-23T09:34:34;100555.19;;;10.30;64.57
84944;BME280;75231;53.650;9.788;2024-03-23T09:36:59;100560.06;;;10.35;65.45
84944;BME280;75231;53.650;9.788;2024-03-23T09:39:27;100548.03;;;10.34;66.11
84944;BME280;75231;53.650;9.788;2024-03-23T09:41:56;100559.03;;;10.50;65.31
84944;BME280;75231;53.650;9.788;2024-03-23T09:44:22;100548.38;;;10.29;64.56
84944;BME280;75231;53.650;9.788;2024-03-23T09:46:48;100552.34;;;10.21;65.01
84944;BME280;75231;53.650;9.788;2024-03-23T09:49:13;100554.09;;;10.20;66.65
84944;BME280;75231;53.650;9.788;2024-03-23T09:51:41;100550.56;;;10.35;66.06
84944;BME280;75231;53.650;9.788;2024-03-23T09:54:06;100532.88;;;10.55;66.44
84944;BME280;75231;53.650;9.788;2024-03-23T09:56:32;100538.06;;;10.68;65.59
84944;BME280;75231;53.650;9.788;2024-03-23T09:59:03;100529.38;;;10.94;63.07
84944;BME280;75231;53.650;9.788;2024-03-23T10:01:30;100525.38;;;11.14;59.87
84944;BME280;75231;53.650;9.788;2024-03-23T10:03:55;100523.38;;;11.30;62.32
84944;BME280;75231;53.650;9.788;2024-03-23T10:06:24;100533.47;;;11.59;61.71
84944;BME280;75231;53.650;9.788;2024-03-23T10:08:54;100521.19;;;11.49;59.17
84944;BME280;75231;53.650;9.788;2024-03-23T10:11:22;100518.72;;;11.72;58.77
84944;BME280;75231;53.650;9.788;2024-03-23T10:13:50;100517.78;;;11.73;59.25
84944;BME280;75231;53.650;9.788;2024-03-23T10:16:23;100514.50;;;11.58;57.82
84944;BME280;75231;53.650;9.788;2024-03-23T10:18:49;100520.94;;;11.53;57.01
84944;BME280;75231;53.650;9.788;2024-03-23T10:21:16;100529.69;;;11.39;55.26
84944;BME280;75231;53.650;9.788;2024-03-23T10:23:42;100526.38;;;10.87;55.36
84944;BME280;75231;53.650;9.788;2024-03-23T10:26:21;100516.84;;;10.62;55.81
84944;BME280;75231;53.650;9.788;2024-03-23T10:31:19;100522.09;;;10.48;56.46
84944;BME280;75231;53.650;9.788;2024-03-23T10:33:46;100509.41;;;10.83;57.88
84944;BME280;75231;53.650;9.788;2024-03-23T10:36:15;100511.09;;;11.21;55.27
84944;BME280;75231;53.650;9.788;2024-03-23T10:38:44;100512.06;;;11.44;55.67
84944;BME280;75231;53.650;9.788;2024-03-23T10:41:10;100518.59;;;11.49;56.46
84944;BME280;75231;53.650;9.788;2024-03-23T10:43:39;100519.88;;;11.31;55.24
84944;BME280;75231;53.650;9.788;2024-03-23T10:46:04;100512.53;;;11.25;55.93
84944;BME280;75231;53.650;9.788;2024-03-23T10:48:33;100507.72;;;10.82;56.32
84944;BME280;75231;53.650;9.788;2024-03-23T10:50:59;100505.34;;;10.67;56.64
84944;BME280;75231;53.650;9.788;2024-03-23T10:53:28;100509.50;;;10.69;55.57
84944;BME280;75231;53.650;9.788;2024-03-23T10:55:55;100499.47;;;10.77;56.33
84944;BME280;75231;53.650;9.788;2024-03-23T10:58:28;100498.41;;;10.92;55.13
84944;BME280;75231;53.650;9.788;2024-03-23T11:00:55;100500.78;;;11.08;56.18
84944;BME280;75231;53.650;9.788;2024-03-23T11:03:46;100495.88;;;11.16;55.94
84944;BME280;75231;53.650;9.788;2024-03-23T11:06:38;100509.56;;;11.06;57.32
84944;BME280;75231;53.650;9.788;2024-03-23T11:09:58;100513.09;;;11.05;58.41
84944;BME280;75231;53.650;9.788;2024-03-23T11:15:06;100501.03;;;10.67;59.63
84944;BME280;75231;53.650;9.788;2024-03-23T11:17:36;100505.25;;;10.30;62.64
84944;BME280;75231;53.650;9.788;2024-03-23T11:20:02;100499.72;;;10.22;63.95
84944;BME280;75231;53.650;9.788;2024-03-23T11:25:03;100496.16;;;10.37;64.17
84944;BME280;75231;53.650;9.788;2024-03-23T11:27:28;100485.91;;;10.61;61.86
84944;BME280;75231;53.650;9.788;2024-03-23T11:29:53;100473.47;;;10.91;61.42
84944;BME280;75231;53.650;9.788;2024-03-23T11:32:19;100476.28;;;11.25;59.25
84944;BME280;75231;53.650;9.788;2024-03-23T11:34:44;100463.19;;;11.39;58.83
84944;BME280;75231;53.650;9.788;2024-03-23T11:37:09;100466.25;;;11.44;57.58
84944;BME280;75231;53.650;9.788;2024-03-23T11:39:41;100498.53;;;11.28;59.07
84944;BME280;75231;53.650;9.788;2024-03-23T11:42:06;100535.78;;;10.63;59.35
84944;BME280;75231;53.650;9.788;2024-03-23T11:44:32;100545.53;;;9.66;63.47
84944;BME280;75231;53.650;9.788;2024-03-23T11:47:07;100558.41;;;8.67;68.02
84944;BME280;75231;53.650;9.788;2024-03-23T11:49:33;100540.28;;;7.46;72.12
84944;BME280;75231;53.650;9.788;2024-03-23T11:52:01;100546.59;;;7.09;75.40
84944;BME280;75231;53.650;9.788;2024-03-23T11:54:27;100544.78;;;6.93;77.30
84944;BME280;75231;53.650;9.788;2024-03-23T11:57:01;100535.56;;;6.89;78.88
84944;BME280;75231;53.650;9.788;2024-03-23T11:59:35;100536.91;;;6.96;78.71
84944;BME280;75231;53.650;9.788;2024-03-23T12:02:09;100524.91;;;7.13;79.15
84944;BME280;75231;53.650;9.788;2024-03-23T12:04:36;100530.59;;;7.35;78.20
84944;BME280;75231;53.650;9.788;2024-03-23T12:07:18;100528.03;;;7.51;78.23
84944;BME280;75231;53.650;9.788;2024-03-23T12:09:45;100517.63;;;7.52;78.26
84944;BME280;75231;53.650;9.788;2024-03-23T12:12:17;100500.28;;;7.56;79.29
84944;BME280;75231;53.650;9.788;2024-03-23T12:14:43;100519.63;;;7.79;79.18
84944;BME280;75231;53.650;9.788;2024-03-23T12:17:13;100500.91;;;7.91;80.34
84944;BME280;75231;53.650;9.788;2024-03-23T12:19:39;100513.97;;;8.18;78.21
84944;BME280;75231;53.650;9.788;2024-03-23T12:22:07;100522.75;;;8.30;75.62
84944;BME280;75231;53.650;9.788;2024-03-23T12:24:32;100549.25;;;8.32;75.24
84944;BME280;75231;53.650;9.788;2024-03-23T12:27:02;100559.25;;;8.38;75.75
84944;BME280;75231;53.650;9.788;2024-03-23T12:29:29;100564.00;;;8.14;72.22
84944;BME280;75231;53.650;9.788;2024-03-23T12:31:54;100568.28;;;7.99;73.36
84944;BME280;75231;53.650;9.788;2024-03-23T12:34:21;100575.78;;;7.88;75.31
84944;BME280;75231;53.650;9.788;2024-03-23T12:36:46;100547.03;;;7.64;74.28
84944;BME280;75231;53.650;9.788;2024-03-23T12:39:11;100548.19;;;7.58;74.34
84944;BME280;75231;53.650;9.788;2024-03-23T12:41:36;100536.84;;;7.63;74.08
84944;BME280;75231;53.650;9.788;2024-03-23T12:44:02;100537.31;;;7.69;74.52
84944;BME280;75231;53.650;9.788;2024-03-23T12:46:27;100519.88;;;7.58;73.04
84944;BME280;75231;53.650;9.788;2024-03-23T12:48:52;100526.03;;;7.72;74.88
84944;BME280;75231;53.650;9.788;2024-03-23T12:51:18;100531.50;;;7.81;75.57
84944;BME280;75231;53.650;9.788;2024-03-23T12:53:43;100532.47;;;7.95;75.28
84944;BME280;75231;53.650;9.788;2024-03-23T12:56:11;100528.91;;;7.97;74.63
84944;BME280;75231;53.650;9.788;2024-03-23T12:58:39;100530.16;;;7.90;74.76
84944;BME280;75231;53.650;9.788;2024-03-23T13:01:05;100519.44;;;7.82;73.31
84944;BME280;75231;53.650;9.788;2024-03-23T13:03:31;100528.00;;;7.82;75.62
84944;BME280;75231;53.650;9.788;2024-03-23T13:05:56;100531.25;;;7.86;74.20
84944;BME280;75231;53.650;9.788;2024-03-23T13:08:22;100538.47;;;7.95;74.89
84944;BME280;75231;53.650;9.788;2024-03-23T13:10:47;100529.59;;;8.15;74.69
84944;BME280;75231;53.650;9.788;2024-03-23T13:13:12;100522.06;;;8.42;74.31
84944;BME280;75231;53.650;9.788;2024-03-23T13:15:38;100524.03;;;8.53;72.88
84944;BME280;75231;53.650;9.788;2024-03-23T13:18:03;100524.66;;;8.56;72.74
84944;BME280;75231;53.650;9.788;2024-03-23T13:20:28;100539.59;;;8.65;72.16
84944;BME280;75231;53.650;9.788;2024-03-23T13:22:53;100552.88;;;8.74;70.86
84944;BME280;75231;53.650;9.788;2024-03-23T13:25:19;100544.28;;;8.29;68.68
84944;BME280;75231;53.650;9.788;2024-03-23T13:27:44;100540.72;;;8.16;69.07
84944;BME280;75231;53.650;9.788;2024-03-23T13:30:09;100545.72;;;8.19;69.62
84944;BME280;75231;53.650;9.788;2024-03-23T13:32:35;100537.44;;;8.13;70.99
84944;BME280;75231;53.650;9.788;2024-03-23T13:35:00;100535.97;;;8.24;69.87
84944;BME280;75231;53.650;9.788;2024-03-23T13:37:26;100530.81;;;8.24;71.28
84944;BME280;75231;53.650;9.788;2024-03-23T13:39:51;100522.44;;;8.36;71.66
84944;BME280;75231;53.650;9.788;2024-03-23T13:42:17;100518.50;;;8.45;72.22
84944;BME280;75231;53.650;9.788;2024-03-23T13:44:42;100513.13;;;8.48;72.45
84944;BME280;75231;53.650;9.788;2024-03-23T13:47:08;100522.66;;;8.61;71.56
84944;BME280;75231;53.650;9.788;2024-03-23T13:49:33;100528.38;;;8.81;73.00
84944;BME280;75231;53.650;9.788;2024-03-23T13:51:59;100520.44;;;8.98;70.79
84944;BME280;75231;53.650;9.788;2024-03-23T13:54:24;100522.09;;;9.13;67.75
84944;BME280;75231;53.650;9.788;2024-03-23T13:56:54;100520.44;;;9.27;68.73
84944;BME280;75231;53.650;9.788;2024-03-23T13:59:23;100514.31;;;9.42;64.48